Time;durP1;ratioP1;P1;durP2;ratioP2;P2;SDS_P1;SDS_P2;PMS_P1;PMS_P2;Temp;Humidity;BMP_temperature;BMP_pressure;BME280_temperature;BME280_humidity;BME280_pressure;Samples;Min_cycle;Max_cycle;Signal;HPM_P1;HPM_P2
2023/04/08 00:00:53;;;;;;;89.10;28.83;;;;;;;8.65;100.00;101889.97;4943376;29;20039;-81
2023/04/08 00:03:20;;;;;;;75.80;30.42;;;;;;;8.66;100.00;101891.75;4929952;29;20098;-81
2023/04/08 00:08:20;;;;;;;90.13;29.88;;;;;;;8.60;100.00;101892.94;5138307;23;20062;-80
2023/04/08 00:13:21;;;;;;;91.50;30.95;;;;;;;8.46;100.00;101898.25;4977176;23;20256;-80
2023/04/08 00:20:57;;;;;;;108.82;33.20;;;;;;;8.49;100.00;101902.69;5872435;23;21212;-80
2023/04/08 00:23:22;;;;;;;90.90;31.27;;;;;;;8.49;100.00;101898.09;4950101;29;20053;-80
2023/04/08 00:25:48;;;;;;;97.20;32.17;;;;;;;8.51;100.00;101892.56;4932109;28;20035;-80
2023/04/08 00:28:13;;;;;;;95.13;32.75;;;;;;;8.44;100.00;101892.91;4948990;28;20035;-80
2023/04/08 00:30:39;;;;;;;98.70;31.92;;;;;;;8.45;100.00;101894.66;4967571;28;20054;-80
2023/04/08 00:33:04;;;;;;;93.68;33.13;;;;;;;8.47;100.00;101897.31;4975971;28;20063;-81
2023/04/08 00:35:30;;;;;;;103.07;32.40;;;;;;;8.50;100.00;101908.06;4932302;29;20041;-80
2023/04/08 00:37:55;;;;;;;113.30;32.45;;;;;;;8.45;100.00;101902.84;4953508;28;20054;-80
2023/04/08 00:40:21;;;;;;;97.00;33.63;;;;;;;8.50;100.00;101902.59;4931405;29;20046;-81
2023/04/08 00:42:46;;;;;;;91.72;32.45;;;;;;;8.33;100.00;101899.84;4945073;28;20027;-81
2023/04/08 00:45:12;;;;;;;96.20;31.20;;;;;;;8.38;100.00;101909.56;4962998;29;20050;-81
2023/04/08 00:47:38;;;;;;;100.97;32.03;;;;;;;8.33;100.00;101910.75;4965075;29;20014;-80
2023/04/08 00:50:09;;;;;;;105.70;31.92;;;;;;;8.25;100.00;101911.19;4987027;28;20039;-81
2023/04/08 00:52:35;;;;;;;104.70;32.28;;;;;;;8.21;100.00;101912.31;4933898;28;20015;-81
2023/04/08 00:55:00;;;;;;;122.22;34.65;;;;;;;8.20;100.00;101915.97;4933351;28;20058;-82
2023/04/08 00:57:26;;;;;;;116.43;34.75;;;;;;;8.20;100.00;101911.44;4934062;29;20031;-82
2023/04/08 00:59:51;;;;;;;105.93;33.90;;;;;;;8.27;100.00;101910.13;4961623;28;20053;-82
2023/04/08 01:02:44;;;;;;;106.55;34.60;;;;;;;8.35;100.00;101915.19;4968179;28;20027;-82
2023/04/08 01:05:29;;;;;;;104.97;32.92;;;;;;;8.41;100.00;101919.44;4973298;28;20043;-82
2023/04/08 01:07:58;;;;;;;112.57;34.35;;;;;;;8.36;100.00;101910.59;4969064;29;20106;-81
2023/04/08 01:10:36;;;;;;;116.03;32.75;;;;;;;8.37;100.00;101920.56;4963341;29;20035;-81
2023/04/08 01:13:08;;;;;;;123.25;33.75;;;;;;;8.38;100.00;101915.03;4921639;29;20837;-81
2023/04/08 01:15:36;;;;;;;106.10;34.20;;;;;;;8.39;100.00;101916.78;4939798;29;20050;-81
2023/04/08 01:18:06;;;;;;;114.90;33.97;;;;;;;8.30;100.00;101911.81;4952559;29;20035;-81
2023/04/08 01:20:32;;;;;;;94.90;32.97;;;;;;;8.29;100.00;101918.25;4955421;29;20439;-81
2023/04/08 01:23:45;;;;;;;113.47;33.78;;;;;;;8.34;100.00;101909.81;4927992;29;20051;-81
2023/04/08 01:26:25;;;;;;;110.43;34.35;;;;;;;8.38;100.00;101908.66;4874136;29;20072;-81
2023/04/08 01:28:53;;;;;;;110.00;35.08;;;;;;;8.48;100.00;101912.72;4946627;29;20046;-82
2023/04/08 01:31:22;;;;;;;103.25;34.47;;;;;;;8.44;100.00;101916.56;4945899;29;20408;-81
2023/04/08 01:33:50;;;;;;;99.82;33.63;;;;;;;8.50;100.00;101913.53;4929340;29;20027;-81
2023/04/08 01:36:17;;;;;;;109.35;35.35;;;;;;;8.41;100.00;101920.34;4929164;29;20106;-81
2023/04/08 01:38:43;;;;;;;124.78;36.53;;;;;;;8.41;100.00;101913.97;4932498;29;20028;-81
2023/04/08 01:41:10;;;;;;;109.55;34.75;;;;;;;8.33;100.00;101919.84;4951673;29;20043;-81
2023/04/08 01:43:39;;;;;;;114.55;35.60;;;;;;;8.38;100.00;101920.50;4948343;29;20031;-80
2023/04/08 01:46:07;;;;;;;122.32;35.95;;;;;;;8.26;100.00;101930.22;4926561;29;20051;-81
2023/04/08 01:48:34;;;;;;;109.70;35.53;;;;;;;8.23;100.00;101932.19;4949584;29;20035;-81
2023/04/08 01:51:04;;;;;;;140.85;36.08;;;;;;;8.19;100.00;101919.69;4928192;29;20039;-81
2023/04/08 01:53:30;;;;;;;116.97;36.05;;;;;;;8.09;100.00;101920.16;4950164;29;20043;-81
2023/04/08 01:56:02;;;;;;;123.18;35.40;;;;;;;8.23;100.00;101930.38;4962625;29;20033;-81
2023/04/08 01:58:36;;;;;;;125.67;36.57;;;;;;;8.24;100.00;101925.78;4951471;29;20061;-81
2023/04/08 02:01:02;;;;;;;136.48;37.72;;;;;;;8.25;100.00;101933.88;4957492;29;20051;-82
2023/04/08 02:03:29;;;;;;;145.00;38.30;;;;;;;8.25;100.00;101930.28;4929796;29;20023;-81
2023/04/08 02:05:55;;;;;;;143.25;38.10;;;;;;;8.18;100.00;101913.34;4946053;28;20042;-81
2023/04/08 02:10:55;;;;;;;134.68;39.65;;;;;;;8.27;100.00;101929.22;5119027;23;20098;-81
2023/04/08 02:13:21;;;;;;;126.88;38.58;;;;;;;8.27;100.00;101929.22;4947539;29;20075;-81
2023/04/08 02:15:52;;;;;;;148.75;39.10;;;;;;;8.32;100.00;101934.44;4918823;29;20039;-82
2023/04/08 02:18:26;;;;;;;153.18;40.53;;;;;;;8.25;100.00;101925.69;4954465;29;20130;-81
2023/04/08 02:21:12;;;;;;;145.18;39.20;;;;;;;8.24;100.00;101926.66;4938998;29;20034;-81
2023/04/08 02:23:40;;;;;;;162.95;39.70;;;;;;;8.23;100.00;101940.38;4936695;29;20035;-81
2023/04/08 02:26:13;;;;;;;138.23;36.85;;;;;;;8.30;100.00;101941.84;4944794;29;20031;-81
2023/04/08 02:28:40;;;;;;;135.75;40.25;;;;;;;8.33;100.00;101938.97;4953233;28;20474;-81
2023/04/08 02:31:12;;;;;;;125.03;37.42;;;;;;;8.31;100.00;101945.44;4945273;28;20099;-81
2023/04/08 02:33:38;;;;;;;142.88;39.38;;;;;;;8.27;100.00;101933.81;4918572;29;20098;-81
2023/04/08 02:36:05;;;;;;;159.57;41.58;;;;;;;8.33;100.00;101944.41;4946578;29;20118;-81
2023/04/08 02:38:31;;;;;;;148.32;39.97;;;;;;;8.36;100.00;101944.25;4926138;29;20028;-81
2023/04/08 02:40:56;;;;;;;155.73;40.70;;;;;;;8.37;100.00;101936.94;4926850;29;20039;-81
2023/04/08 02:43:28;;;;;;;144.90;40.38;;;;;;;8.35;100.00;101941.59;4957416;29;20526;-81
2023/04/08 02:45:54;;;;;;;133.70;39.25;;;;;;;8.22;100.00;101936.78;4936892;28;20035;-81
2023/04/08 02:48:19;;;;;;;139.23;39.65;;;;;;;8.21;100.00;101947.75;4928307;29;20035;-82
2023/04/08 02:50:45;;;;;;;134.10;40.30;;;;;;;8.20;100.00;101933.25;4921235;29;20031;-82
2023/04/08 02:53:10;;;;;;;125.43;39.25;;;;;;;8.24;100.00;101944.88;4937092;29;20059;-82
2023/04/08 02:55:36;;;;;;;146.63;40.42;;;;;;;8.27;100.00;101947.44;4959024;28;20031;-82
2023/04/08 02:58:02;;;;;;;156.15;40.20;;;;;;;8.23;100.00;101938.56;4947703;28;20042;-82
2023/04/08 03:28:24;;;;;;;168.82;41.75;;;;;;;8.10;100.00;101931.97;6015288;23;20026;-81
2023/04/08 03:30:50;;;;;;;183.40;42.95;;;;;;;8.16;100.00;101938.94;4945230;29;20031;-81
2023/04/08 03:33:15;;;;;;;154.52;39.50;;;;;;;8.14;100.00;101943.59;4937287;29;20107;-81
2023/04/08 03:40:46;;;;;;;157.50;41.40;;;;;;;8.02;100.00;101954.16;4980509;28;20371;-82
2023/04/08 03:43:12;;;;;;;173.90;40.58;;;;;;;8.00;100.00;101938.84;4930981;29;20042;-82
2023/04/08 03:45:38;;;;;;;184.65;42.55;;;;;;;8.08;100.00;101951.13;4944616;28;20044;-82
2023/04/08 03:48:04;;;;;;;157.30;42.30;;;;;;;8.02;100.00;101943.25;4925442;29;20023;-81
2023/04/08 03:50:29;;;;;;;178.02;41.13;;;;;;;7.95;100.00;101921.81;4972769;28;20010;-80
2023/04/08 03:52:55;;;;;;;183.07;42.17;;;;;;;8.06;100.00;101946.72;4956050;29;20062;-82
2023/04/08 03:55:20;;;;;;;161.38;40.80;;;;;;;8.04;100.00;101944.06;4930265;29;20039;-82
2023/04/08 03:57:46;;;;;;;166.50;42.25;;;;;;;7.99;100.00;101945.28;4967220;28;20102;-82
2023/04/08 04:00:14;;;;;;;176.25;42.45;;;;;;;7.95;100.00;101955.41;4948428;28;20557;-81
2023/04/08 04:02:40;;;;;;;159.02;39.55;;;;;;;7.85;100.00;101954.13;4945864;29;20047;-81
2023/04/08 04:05:06;;;;;;;161.95;41.08;;;;;;;7.87;100.00;101946.75;4944149;28;20063;-81
2023/04/08 04:07:31;;;;;;;170.93;42.08;;;;;;;7.82;100.00;101955.19;4946441;28;20050;-80
2023/04/08 04:09:56;;;;;;;168.60;41.22;;;;;;;7.70;100.00;101964.81;5666116;23;20415;-81
2023/04/08 04:12:22;;;;;;;183.75;41.70;;;;;;;7.63;100.00;101965.22;4966294;29;20142;-81
2023/04/08 04:14:48;;;;;;;170.90;40.38;;;;;;;7.65;100.00;101958.72;4947871;28;20026;-80
2023/04/08 04:17:14;;;;;;;177.23;44.10;;;;;;;7.66;100.00;101962.34;4954526;29;20031;-80
2023/04/08 04:19:39;;;;;;;182.65;42.72;;;;;;;7.62;100.00;101964.31;4945490;29;20027;-80
2023/04/08 04:27:17;;;;;;;165.43;40.95;;;;;;;7.52;100.00;101973.91;5863507;23;20070;-81
2023/04/08 04:29:43;;;;;;;193.05;41.78;;;;;;;7.49;100.00;101969.50;4970358;28;20517;-81
2023/04/08 04:32:08;;;;;;;188.73;44.05;;;;;;;7.42;100.00;101975.31;4951300;28;20042;-81
2023/04/08 04:34:34;;;;;;;175.20;42.22;;;;;;;7.40;100.00;101979.97;4957896;28;20019;-80
2023/04/08 04:36:59;;;;;;;175.93;40.58;;;;;;;7.43;100.00;101983.41;4957973;28;20058;-80
2023/04/08 04:39:25;;;;;;;192.10;42.70;;;;;;;7.48;100.00;101988.66;4948733;28;20040;-80
2023/04/08 04:41:50;;;;;;;203.25;44.50;;;;;;;7.46;100.00;101991.44;4944100;29;20031;-80
2023/04/08 04:44:16;;;;;;;190.77;43.40;;;;;;;7.38;100.00;101987.31;4963036;29;20042;-80
2023/04/08 04:46:41;;;;;;;197.00;42.45;;;;;;;7.47;100.00;102004.09;4965291;28;20034;-80
2023/04/08 04:49:10;;;;;;;205.07;45.38;;;;;;;7.48;100.00;102000.44;4948509;29;20038;-80
2023/04/08 04:51:36;;;;;;;193.55;42.45;;;;;;;7.52;100.00;102002.03;4974296;28;20046;-81
2023/04/08 04:54:02;;;;;;;198.73;42.88;;;;;;;7.55;100.00;102003.75;4938287;28;20020;-81
2023/04/08 04:56:27;;;;;;;197.27;44.55;;;;;;;7.41;100.00;101996.25;4954942;29;20043;-80
2023/04/08 04:58:52;;;;;;;199.48;43.90;;;;;;;7.36;100.00;101999.19;4975326;28;20054;-82
2023/04/08 05:01:18;;;;;;;240.45;44.63;;;;;;;7.38;100.00;102001.84;4946385;29;20035;-81
2023/04/08 05:03:43;;;;;;;187.27;45.08;;;;;;;7.46;100.00;102004.16;4962157;28;20034;-81
2023/04/08 05:06:09;;;;;;;205.48;45.20;;;;;;;7.46;100.00;102012.34;4963654;28;20106;-81
2023/04/08 05:08:34;;;;;;;203.15;43.63;;;;;;;7.50;100.00;102012.13;4968176;28;20046;-81
2023/04/08 05:11:01;;;;;;;218.95;45.15;;;;;;;7.51;100.00;102019.38;4927911;28;20054;-81
2023/04/08 05:13:28;;;;;;;207.13;44.65;;;;;;;7.51;100.00;102010.28;4961133;28;20173;-81
2023/04/08 05:15:53;;;;;;;200.43;43.95;;;;;;;7.58;100.00;102022.69;4946350;28;20035;-81
2023/04/08 05:18:18;;;;;;;207.45;45.90;;;;;;;7.35;100.00;102001.97;4948838;28;20046;-81
2023/04/08 05:20:44;;;;;;;202.38;44.60;;;;;;;7.49;100.00;102017.66;4964890;28;20058;-81
2023/04/08 05:23:10;;;;;;;202.68;44.22;;;;;;;7.52;100.00;102025.69;4950999;28;20494;-80
2023/04/08 05:25:35;;;;;;;201.30;44.15;;;;;;;7.57;100.00;102031.78;4942404;28;20173;-80
2023/04/08 05:28:01;;;;;;;200.85;44.45;;;;;;;7.48;100.00;102035.84;4944212;28;20070;-81
2023/04/08 05:30:27;;;;;;;192.00;43.15;;;;;;;7.52;100.00;102032.00;4958067;28;20030;-82
2023/04/08 05:32:52;;;;;;;195.57;45.38;;;;;;;7.65;100.00;102031.44;4932027;29;20515;-82
2023/04/08 05:35:18;;;;;;;191.63;44.92;;;;;;;7.69;100.00;102024.88;4956275;28;20027;-85
2023/04/08 05:37:43;;;;;;;184.70;43.78;;;;;;;7.74;100.00;102039.19;4931631;28;20039;-82
2023/04/08 05:40:09;;;;;;;179.13;42.55;;;;;;;7.78;100.00;102035.34;4921189;28;20058;-83
2023/04/08 05:42:34;;;;;;;173.80;43.97;;;;;;;7.83;100.00;102030.53;4945747;28;20042;-83
2023/04/08 05:45:04;;;;;;;170.75;43.90;;;;;;;7.85;100.00;102042.25;4946004;28;20108;-84
2023/04/08 05:47:30;;;;;;;187.75;44.90;;;;;;;7.82;100.00;102034.25;4956429;28;20036;-82
2023/04/08 05:49:55;;;;;;;178.15;45.45;;;;;;;7.86;100.00;102040.44;4940140;28;20045;-83
2023/04/08 05:52:21;;;;;;;154.45;41.78;;;;;;;8.07;100.00;102046.69;4960282;28;20122;-84
2023/04/08 05:54:46;;;;;;;188.82;45.20;;;;;;;7.94;100.00;102029.16;4963546;28;20375;-84
2023/04/08 05:57:12;;;;;;;166.85;44.97;;;;;;;8.13;100.00;102049.09;4943807;28;20459;-85
2023/04/08 05:59:37;;;;;;;173.32;45.70;;;;;;;8.04;100.00;102047.69;4973186;28;20066;-83
2023/04/08 06:02:03;;;;;;;161.32;46.60;;;;;;;8.01;100.00;102050.56;4981314;28;20060;-84
2023/04/08 06:04:29;;;;;;;171.95;45.95;;;;;;;8.08;100.00;102046.59;4934188;29;20126;-84
2023/04/08 06:06:58;;;;;;;188.40;46.03;;;;;;;8.06;100.00;102050.34;4923677;29;20070;-85
2023/04/08 06:09:24;;;;;;;173.10;45.72;;;;;;;8.19;100.00;102062.44;4976480;28;20118;-84
2023/04/08 06:11:50;;;;;;;191.65;48.53;;;;;;;8.16;100.00;102059.84;4961879;28;20102;-83
2023/04/08 06:14:15;;;;;;;183.45;45.15;;;;;;;8.23;100.00;102064.06;4956838;29;20107;-83
2023/04/08 06:16:41;;;;;;;166.95;45.47;;;;;;;8.35;100.00;102067.13;4974333;28;20063;-84
2023/04/08 06:19:06;;;;;;;169.38;46.47;;;;;;;8.17;100.00;102049.84;4941382;28;20077;-82
2023/04/08 06:21:32;;;;;;;172.68;45.72;;;;;;;8.15;100.00;102066.28;4954577;28;20383;-82
2023/04/08 06:23:57;;;;;;;168.32;45.35;;;;;;;8.17;100.00;102064.34;4924937;28;20479;-82
2023/04/08 06:26:23;;;;;;;195.55;48.95;;;;;;;8.25;100.00;102067.59;4945407;29;20534;-81
2023/04/08 06:28:48;;;;;;;177.90;48.17;;;;;;;8.31;100.00;102077.28;4944174;28;20088;-80
2023/04/08 06:31:14;;;;;;;186.52;47.92;;;;;;;8.39;100.00;102075.06;4963820;28;20391;-81
2023/04/08 06:33:40;;;;;;;181.07;49.47;;;;;;;8.36;100.00;102069.78;4960175;28;20042;-81
2023/04/08 06:36:06;;;;;;;177.15;48.92;;;;;;;8.55;100.00;102075.22;4956041;28;20045;-80
2023/04/08 06:38:33;;;;;;;170.43;48.15;;;;;;;8.58;100.00;102072.31;4924605;29;20459;-80
2023/04/08 06:41:03;;;;;;;161.95;46.38;;;;;;;8.63;100.00;102075.69;4925235;29;20026;-80
2023/04/08 06:43:29;;;;;;;167.80;45.08;;;;;;;8.65;100.00;102089.28;4917994;28;20070;-81
2023/04/08 06:45:56;;;;;;;160.57;45.58;;;;;;;8.80;100.00;102080.28;4948404;29;20027;-80
2023/04/08 06:48:27;;;;;;;158.80;45.95;;;;;;;8.90;100.00;102088.88;4935195;28;20069;-81
2023/04/08 06:50:53;;;;;;;159.57;47.22;;;;;;;8.77;100.00;102088.66;4946150;28;20482;-80
2023/04/08 06:53:19;;;;;;;136.18;43.70;;;;;;;8.90;100.00;102099.81;4941360;28;20117;-78
2023/04/08 06:55:45;;;;;;;154.18;45.50;;;;;;;8.81;100.00;102101.19;4928839;29;20048;-80
2023/04/08 06:58:10;;;;;;;148.00;46.35;;;;;;;8.77;100.00;102101.41;4910732;29;20098;-78
2023/04/08 07:00:36;;;;;;;151.75;45.22;;;;;;;8.81;100.00;102112.09;4895312;29;20440;-78
2023/04/08 07:03:01;;;;;;;128.30;42.55;;;;;;;8.91;100.00;102115.25;4900192;29;20039;-78
2023/04/08 07:05:27;;;;;;;133.32;44.25;;;;;;;8.87;100.00;102118.19;4969439;28;20039;-79
2023/04/08 07:07:52;;;;;;;136.57;43.75;;;;;;;8.88;100.00;102111.78;4938461;28;20031;-78
2023/04/08 07:10:18;;;;;;;133.65;42.50;;;;;;;8.81;100.00;102119.41;4949237;28;20058;-79
2023/04/08 07:12:43;;;;;;;126.43;41.88;;;;;;;8.78;100.00;102116.84;4954421;28;20414;-77
2023/04/08 07:15:10;;;;;;;93.60;36.60;;;;;;;8.76;100.00;102122.38;4954490;28;20084;-78
2023/04/08 07:17:36;;;;;;;123.22;42.08;;;;;;;8.77;100.00;102124.16;4953661;28;20553;-78
2023/04/08 07:20:02;;;;;;;124.50;41.15;;;;;;;8.99;100.00;102132.13;4963697;29;20039;-78
2023/04/08 07:22:27;;;;;;;123.40;41.58;;;;;;;8.93;100.00;102128.81;4925785;28;20035;-78
2023/04/08 07:24:53;;;;;;;103.60;38.65;;;;;;;9.25;100.00;102128.97;4952741;28;20074;-79
2023/04/08 07:27:18;;;;;;;104.80;40.15;;;;;;;9.07;100.00;102133.56;4938363;28;20438;-78
2023/04/08 07:29:44;;;;;;;94.03;37.03;;;;;;;9.16;100.00;102144.88;4951500;29;20143;-78
2023/04/08 07:32:10;;;;;;;91.35;36.60;;;;;;;9.01;100.00;102132.91;4949890;28;20106;-79
2023/04/08 07:34:35;;;;;;;101.45;37.17;;;;;;;9.22;100.00;102140.09;4918716;29;20035;-78
2023/04/08 07:37:01;;;;;;;98.55;36.35;;;;;;;9.09;100.00;102143.44;4935692;29;20042;-80
2023/04/08 07:39:27;;;;;;;82.95;32.33;;;;;;;9.23;100.00;102142.75;4919943;29;20035;-79
2023/04/08 07:41:52;;;;;;;72.28;30.92;;;;;;;9.22;100.00;102140.09;4950256;29;20047;-78
2023/04/08 07:44:18;;;;;;;83.57;32.35;;;;;;;8.96;100.00;102132.28;4918598;29;20107;-78
2023/04/08 07:46:45;;;;;;;77.35;30.95;;;;;;;8.76;100.00;102121.50;4917995;28;20465;-81
2023/04/08 07:49:11;;;;;;;82.72;33.75;;;;;;;8.98;100.00;102145.84;4950431;28;20027;-79
2023/04/08 07:51:39;;;;;;;85.35;34.10;;;;;;;9.15;100.00;102148.59;4929194;28;20030;-80
2023/04/08 07:54:04;;;;;;;74.20;30.58;;;;;;;9.53;100.00;102161.19;4937320;28;20038;-80
2023/04/08 07:56:30;;;;;;;66.60;30.33;;;;;;;9.26;100.00;102169.00;4937893;28;20091;-80
2023/04/08 07:58:55;;;;;;;67.10;29.20;;;;;;;9.43;100.00;102159.91;4922706;28;20038;-80
2023/04/08 08:01:22;;;;;;;74.07;31.52;;;;;;;9.43;100.00;102163.53;4936650;28;20035;-80
2023/04/08 08:03:51;;;;;;;70.68;30.05;;;;;;;9.36;100.00;102165.72;4955454;28;20034;-79
2023/04/08 08:06:17;;;;;;;70.40;31.45;;;;;;;9.35;100.00;102157.59;4968270;28;20027;-81
2023/04/08 08:08:42;;;;;;;71.85;29.50;;;;;;;9.19;100.00;102163.84;4950997;29;20063;-80
2023/04/08 08:11:08;;;;;;;62.90;29.05;;;;;;;9.42;100.00;102155.41;4936422;28;20070;-79
2023/04/08 08:13:34;;;;;;;67.80;30.05;;;;;;;9.18;100.00;102162.09;4954664;28;20141;-80
2023/04/08 08:15:59;;;;;;;72.93;30.73;;;;;;;9.24;100.00;102165.47;4921752;28;20046;-80
2023/04/08 08:18:25;;;;;;;68.80;29.67;;;;;;;9.30;100.00;102163.31;4949721;29;20051;-79
2023/04/08 08:20:51;;;;;;;70.07;30.70;;;;;;;9.31;100.00;102172.38;4943049;28;20027;-79
2023/04/08 08:23:16;;;;;;;70.03;29.55;;;;;;;9.34;100.00;102173.09;4940754;28;20039;-79
2023/04/08 08:25:42;;;;;;;73.78;32.05;;;;;;;9.29;100.00;102172.47;4938874;28;20035;-80
2023/04/08 08:28:07;;;;;;;72.55;31.73;;;;;;;9.31;100.00;102181.47;4945835;29;20074;-79
2023/04/08 08:30:33;;;;;;;72.32;31.05;;;;;;;9.38;100.00;102184.78;4922563;29;20083;-80
2023/04/08 08:32:59;;;;;;;65.07;30.50;;;;;;;9.24;100.00;102184.59;4937174;29;20043;-80
2023/04/08 08:35:25;;;;;;;72.78;31.08;;;;;;;9.29;100.00;102185.25;4948700;28;20054;-79
2023/04/08 08:37:50;;;;;;;73.47;31.65;;;;;;;9.20;100.00;102189.34;4983134;28;20043;-82
2023/04/08 08:40:16;;;;;;;65.20;29.77;;;;;;;9.07;100.00;102193.66;4916434;29;20047;-80
2023/04/08 08:42:48;;;;;;;73.85;33.05;;;;;;;9.04;100.00;102189.25;4962238;28;20022;-79
2023/04/08 08:45:14;;;;;;;70.75;31.48;;;;;;;9.06;100.00;102206.44;4951843;29;20039;-80
2023/04/08 08:47:40;;;;;;;75.82;32.17;;;;;;;9.05;100.00;102191.03;4924608;29;20094;-80
2023/04/08 08:50:06;;;;;;;79.07;33.17;;;;;;;9.36;100.00;102206.72;4924277;29;20035;-80
2023/04/08 08:52:31;;;;;;;82.93;32.83;;;;;;;9.33;100.00;102206.88;4933419;29;20035;-80
2023/04/08 08:54:58;;;;;;;83.78;35.03;;;;;;;9.29;100.00;102207.13;4943709;28;20039;-80
2023/04/08 08:57:24;;;;;;;91.38;36.35;;;;;;;9.28;100.00;102211.72;4975182;28;20034;-81
2023/04/08 08:59:49;;;;;;;77.57;33.97;;;;;;;9.28;100.00;102206.25;4944049;28;20137;-81
2023/04/08 09:02:26;;;;;;;86.40;34.95;;;;;;;9.40;100.00;102204.72;4942953;28;20035;-82
2023/04/08 09:05:00;;;;;;;80.90;33.60;;;;;;;9.70;100.00;102204.91;4957718;28;20031;-81
2023/04/08 09:07:27;;;;;;;81.57;34.13;;;;;;;9.64;100.00;102208.00;4972765;28;20070;-80
2023/04/08 09:09:54;;;;;;;90.32;35.60;;;;;;;9.72;100.00;102213.03;4956852;28;20038;-80
2023/04/08 09:12:20;;;;;;;80.88;34.67;;;;;;;9.72;100.00;102213.94;4955494;29;20046;-81
2023/04/08 09:14:47;;;;;;;84.40;34.33;;;;;;;9.60;100.00;102216.44;4958121;29;20039;-81
2023/04/08 09:17:13;;;;;;;83.05;35.75;;;;;;;9.78;100.00;102211.84;4936904;29;20442;-80
2023/04/08 09:19:38;;;;;;;73.75;32.72;;;;;;;9.71;100.00;102220.38;4957399;28;20031;-81
2023/04/08 09:22:08;;;;;;;79.40;32.65;;;;;;;9.86;100.00;102220.50;4971681;28;20035;-80
2023/04/08 09:24:35;;;;;;;84.18;34.97;;;;;;;9.82;100.00;102218.91;4973482;28;20035;-80
2023/04/08 09:27:02;;;;;;;83.78;35.60;;;;;;;9.55;100.00;102205.75;4956006;28;20431;-81
2023/04/08 09:29:27;;;;;;;90.88;37.97;;;;;;;9.61;100.00;102227.31;4959404;28;20379;-80
2023/04/08 09:31:58;;;;;;;83.15;32.97;;;;;;;9.64;100.00;102223.50;4915997;29;20063;-81
2023/04/08 09:34:25;;;;;;;89.28;35.83;;;;;;;9.74;100.00;102235.75;4917200;29;20023;-80
2023/04/08 09:36:52;;;;;;;82.18;34.60;;;;;;;9.62;100.00;102236.38;4928769;29;20039;-80
2023/04/08 09:39:18;;;;;;;89.75;36.65;;;;;;;9.65;100.00;102234.38;4935680;29;20028;-81
2023/04/08 09:41:47;;;;;;;78.82;35.03;;;;;;;9.87;100.00;102245.06;4935739;29;20116;-79
2023/04/08 09:44:18;;;;;;;82.18;35.42;;;;;;;9.92;100.00;102240.22;4937333;29;20079;-79
2023/04/08 09:46:49;;;;;;;70.85;34.47;;;;;;;9.94;100.00;102248.34;4939027;29;20095;-80
2023/04/08 09:49:18;;;;;;;67.30;32.42;;;;;;;10.15;100.00;102251.75;4955310;29;20039;-80
2023/04/08 09:52:08;;;;;;;72.72;32.90;;;;;;;10.16;100.00;102252.63;4949712;29;20119;-80
2023/04/08 09:54:52;;;;;;;72.43;33.10;;;;;;;9.85;100.00;102257.03;4947254;29;20031;-79
2023/04/08 09:57:32;;;;;;;73.53;33.45;;;;;;;10.05;100.00;102245.00;4954336;29;20035;-79
2023/04/08 10:00:06;;;;;;;67.47;33.67;;;;;;;10.14;100.00;102251.84;4973037;29;20031;-79
2023/04/08 10:02:40;;;;;;;70.50;33.60;;;;;;;10.13;100.00;102248.19;4958051;29;20086;-79
2023/04/08 10:05:06;;;;;;;69.72;34.40;;;;;;;10.27;100.00;102252.94;4956049;29;20038;-81
2023/04/08 10:07:34;;;;;;;69.43;32.53;;;;;;;10.94;100.00;102247.38;4939745;29;20038;-81
2023/04/08 10:10:00;;;;;;;69.35;33.85;;;;;;;10.93;100.00;102245.59;4943851;29;20037;-81
2023/04/08 10:12:27;;;;;;;76.15;33.35;;;;;;;10.63;100.00;102243.66;4956850;29;20054;-81
2023/04/08 10:15:20;;;;;;;70.00;33.28;;;;;;;10.78;100.00;102244.63;4940036;29;20043;-82
2023/04/08 10:17:46;;;;;;;74.85;33.53;;;;;;;10.80;100.00;102243.56;4940590;29;20031;-82
2023/04/08 10:20:33;;;;;;;72.93;35.28;;;;;;;10.94;100.00;102239.16;4922862;29;20106;-82
2023/04/08 10:22:59;;;;;;;74.28;35.50;;;;;;;10.75;100.00;102233.84;4953922;29;20437;-83
2023/04/08 10:25:25;;;;;;;82.78;35.63;;;;;;;10.84;100.00;102239.69;4942053;29;20036;-81
2023/04/08 10:27:50;;;;;;;73.47;34.97;;;;;;;11.74;100.00;102239.81;4958674;29;20039;-81
2023/04/08 10:30:31;;;;;;;71.15;33.97;;;;;;;12.30;100.00;102238.16;4941341;29;20027;-81
2023/04/08 10:33:02;;;;;;;66.15;32.03;;;;;;;12.62;100.00;102234.28;4961708;28;20050;-81
2023/04/08 10:35:35;;;;;;;67.90;31.77;;;;;;;13.02;100.00;102228.91;4974373;28;20030;-81
2023/04/08 10:38:01;;;;;;;61.45;30.08;;;;;;;12.54;100.00;102234.78;4977420;28;20045;-81
2023/04/08 10:40:27;;;;;;;73.03;34.63;;;;;;;12.27;100.00;102230.09;4941998;28;20039;-81
2023/04/08 10:42:56;;;;;;;77.05;34.40;;;;;;;12.49;100.00;102228.72;4961289;28;20031;-82
2023/04/08 10:45:22;;;;;;;69.30;32.83;;;;;;;12.67;100.00;102230.28;4960041;28;20027;-82
2023/04/08 10:47:48;;;;;;;64.65;32.30;;;;;;;12.28;100.00;102230.97;4971095;29;20035;-81
2023/04/08 10:50:18;;;;;;;64.75;33.28;;;;;;;12.88;100.00;102238.94;4948839;28;20085;-80
2023/04/08 10:52:51;;;;;;;75.93;34.55;;;;;;;13.43;100.00;102236.22;4946465;28;20523;-82
2023/04/08 10:55:24;;;;;;;62.97;31.90;;;;;;;13.72;100.00;102227.78;4958199;28;20035;-80
2023/04/08 10:57:50;;;;;;;;;;;;;;;13.58;100.00;102221.38;4955088;28;20521;-81
2023/04/08 11:00:39;;;;;;;68.03;32.67;;;;;;;14.19;100.00;102223.50;4946405;28;19918;-82
2023/04/08 11:03:10;;;;;;;66.68;32.05;;;;;;;12.98;100.00;102227.31;4994528;28;20062;-81
2023/04/08 11:05:37;;;;;;;69.60;33.33;;;;;;;12.32;100.00;102225.19;4961773;28;20035;-81
2023/04/08 11:08:06;;;;;;;73.18;37.05;;;;;;;12.59;100.00;102229.88;4955161;29;20034;-80
2023/04/08 11:10:40;;;;;;;72.10;34.00;;;;;;;13.68;100.00;102226.25;4959058;28;20034;-84
2023/04/08 11:13:08;;;;;;;76.10;34.20;;;;;;;13.18;100.00;102217.72;4968340;28;20400;-80
2023/04/08 11:15:35;;;;;;;69.63;33.42;;;;;;;12.90;100.00;102221.47;4959307;28;20049;-80
2023/04/08 11:18:03;;;;;;;79.90;37.83;;;;;;;12.80;100.00;102224.81;4993428;28;20026;-80
2023/04/08 11:20:29;;;;;;;76.97;34.70;;;;;;;12.26;100.00;102203.59;4975307;28;20054;-80
2023/04/08 11:22:56;;;;;;;73.85;35.85;;;;;;;12.78;100.00;102212.19;4939464;28;20039;-81
2023/04/08 11:25:21;;;;;;;81.10;37.90;;;;;;;12.58;100.00;102219.88;4970977;28;20089;-80
2023/04/08 11:27:48;;;;;;;68.57;33.40;;;;;;;13.06;100.00;102223.06;4972801;28;20106;-81
2023/04/08 11:30:14;;;;;;;71.10;34.38;;;;;;;12.77;100.00;102210.41;4924655;29;20130;-80
2023/04/08 11:32:40;;;;;;;58.08;28.73;;;;;;;13.19;100.00;102227.75;4911056;29;20042;-81
2023/04/08 11:35:06;;;;;;;75.63;33.45;;;;;;;13.41;100.00;102213.41;4941513;29;20384;-81
2023/04/08 11:37:39;;;;;;;60.25;30.52;;;;;;;13.73;100.00;102221.31;4953297;29;20039;-80
2023/04/08 11:40:10;;;;;;;62.33;31.08;;;;;;;14.03;100.00;102225.59;4970239;29;20050;-81
2023/04/08 11:42:36;;;;;;;78.82;33.40;;;;;;;13.27;100.00;102217.09;4939560;29;20091;-81
2023/04/08 11:45:10;;;;;;;62.75;31.50;;;;;;;13.51;100.00;102208.16;4961812;29;20040;-80
2023/04/08 11:47:36;;;;;;;56.30;27.52;;;;;;;13.31;100.00;102212.25;4954427;29;20035;-80
2023/04/08 11:50:02;;;;;;;47.72;26.10;;;;;;;13.43;98.91;102203.19;4963335;29;20046;-81
2023/04/08 11:52:44;;;;;;;56.03;27.50;;;;;;;13.37;100.00;102204.50;4948491;29;20043;-78
2023/04/08 11:55:11;;;;;;;64.72;31.20;;;;;;;13.62;100.00;102211.03;4932831;29;20491;-79
2023/04/08 11:57:37;;;;;;;58.78;29.02;;;;;;;13.32;100.00;102203.94;4901550;29;20032;-82